sensor_id;sensor_type;location;lat;lon;timestamp;P1;durP1;ratioP1;P2;durP2;ratioP2
34960;SDS011;30789;52.030;7.110;2024-03-06T00:01:15;28.10;;;18.52;;
34960;SDS011;30789;52.030;7.110;2024-03-06T00:03:43;26.00;;;19.00;;
34960;SDS011;30789;52.030;7.110;2024-03-06T00:06:09;24.92;;;17.75;;
34960;SDS011;30789;52.030;7.110;2024-03-06T00:08:36;25.73;;;17.83;;
34960;SDS011;30789;52.030;7.110;2024-03-06T00:11:03;28.38;;;18.40;;
34960;SDS011;30789;52.030;7.110;2024-03-06T00:13:30;26.83;;;17.42;;
34960;SDS011;30789;52.030;7.110;2024-03-06T00:15:56;27.25;;;17.48;;
34960;SDS011;30789;52.030;7.110;2024-03-06T00:18:23;23.77;;;17.00;;
34960;SDS011;30789;52.030;7.110;2024-03-06T00:20:51;23.95;;;17.38;;
34960;SDS011;30789;52.030;7.110;2024-03-06T00:23:18;24.88;;;16.25;;
34960;SDS011;30789;52.030;7.110;2024-03-06T00:25:44;27.80;;;16.98;;
34960;SDS011;30789;52.030;7.110;2024-03-06T00:28:11;21.73;;;16.88;;
34960;SDS011;30789;52.030;7.110;2024-03-06T00:30:38;21.77;;;15.55;;
34960;SDS011;30789;52.030;7.110;2024-03-06T00:33:05;21.95;;;15.88;;
34960;SDS011;30789;52.030;7.110;2024-03-06T00:35:31;24.08;;;15.98;;
34960;SDS011;30789;52.030;7.110;2024-03-06T00:37:59;22.05;;;15.30;;
34960;SDS011;30789;52.030;7.110;2024-03-06T00:40:27;23.35;;;16.33;;
34960;SDS011;30789;52.030;7.110;2024-03-06T00:42:55;21.08;;;15.57;;
34960;SDS011;30789;52.030;7.110;2024-03-06T00:45:22;23.17;;;16.42;;
34960;SDS011;30789;52.030;7.110;2024-03-06T00:47:49;21.83;;;15.77;;
34960;SDS011;30789;52.030;7.110;2024-03-06T00:50:16;22.85;;;14.80;;
34960;SDS011;30789;52.030;7.110;2024-03-06T00:52:46;19.95;;;14.38;;
34960;SDS011;30789;52.030;7.110;2024-03-06T00:55:15;20.02;;;14.13;;
34960;SDS011;30789;52.030;7.110;2024-03-06T00:57:42;18.65;;;14.23;;
34960;SDS011;30789;52.030;7.110;2024-03-06T01:00:09;21.13;;;14.38;;
34960;SDS011;30789;52.030;7.110;2024-03-06T01:02:36;20.60;;;13.15;;
34960;SDS011;30789;52.030;7.110;2024-03-06T01:05:04;20.27;;;14.48;;
34960;SDS011;30789;52.030;7.110;2024-03-06T01:07:31;21.65;;;14.57;;
34960;SDS011;30789;52.030;7.110;2024-03-06T01:09:58;19.25;;;14.45;;
34960;SDS011;30789;52.030;7.110;2024-03-06T01:12:27;19.98;;;14.10;;
34960;SDS011;30789;52.030;7.110;2024-03-06T01:14:54;21.55;;;15.35;;
34960;SDS011;30789;52.030;7.110;2024-03-06T01:17:20;18.58;;;14.23;;
34960;SDS011;30789;52.030;7.110;2024-03-06T01:19:47;19.02;;;14.00;;
34960;SDS011;30789;52.030;7.110;2024-03-06T01:22:14;20.42;;;13.55;;
34960;SDS011;30789;52.030;7.110;2024-03-06T01:24:40;20.23;;;14.57;;
34960;SDS011;30789;52.030;7.110;2024-03-06T01:27:07;18.40;;;14.15;;
34960;SDS011;30789;52.030;7.110;2024-03-06T01:29:36;19.55;;;15.38;;
34960;SDS011;30789;52.030;7.110;2024-03-06T01:32:02;23.92;;;14.88;;
34960;SDS011;30789;52.030;7.110;2024-03-06T01:34:30;19.58;;;14.77;;
34960;SDS011;30789;52.030;7.110;2024-03-06T01:36:57;23.05;;;15.20;;
34960;SDS011;30789;52.030;7.110;2024-03-06T01:39:23;20.38;;;14.38;;
34960;SDS011;30789;52.030;7.110;2024-03-06T01:41:50;20.13;;;14.63;;
34960;SDS011;30789;52.030;7.110;2024-03-06T01:44:17;19.40;;;14.43;;
34960;SDS011;30789;52.030;7.110;2024-03-06T01:46:46;19.08;;;14.15;;
34960;SDS011;30789;52.030;7.110;2024-03-06T01:49:12;21.00;;;14.23;;
34960;SDS011;30789;52.030;7.110;2024-03-06T01:51:41;21.80;;;14.95;;
34960;SDS011;30789;52.030;7.110;2024-03-06T01:54:11;21.67;;;14.73;;
34960;SDS011;30789;52.030;7.110;2024-03-06T01:56:38;21.05;;;14.48;;
34960;SDS011;30789;52.030;7.110;2024-03-06T01:59:09;21.35;;;15.82;;
34960;SDS011;30789;52.030;7.110;2024-03-06T02:01:36;18.65;;;13.82;;
34960;SDS011;30789;52.030;7.110;2024-03-06T02:04:04;21.63;;;15.35;;
34960;SDS011;30789;52.030;7.110;2024-03-06T02:06:34;21.65;;;15.25;;
34960;SDS011;30789;52.030;7.110;2024-03-06T02:09:02;20.42;;;15.57;;
34960;SDS011;30789;52.030;7.110;2024-03-06T02:11:29;21.67;;;15.48;;
34960;SDS011;30789;52.030;7.110;2024-03-06T02:13:56;20.02;;;15.32;;
34960;SDS011;30789;52.030;7.110;2024-03-06T02:16:23;24.25;;;16.92;;
34960;SDS011;30789;52.030;7.110;2024-03-06T02:18:51;25.48;;;16.30;;
34960;SDS011;30789;52.030;7.110;2024-03-06T02:21:20;21.15;;;15.95;;
34960;SDS011;30789;52.030;7.110;2024-03-06T02:23:47;21.92;;;16.40;;
34960;SDS011;30789;52.030;7.110;2024-03-06T02:26:13;19.65;;;15.45;;
34960;SDS011;30789;52.030;7.110;2024-03-06T02:28:45;22.73;;;16.02;;
34960;SDS011;30789;52.030;7.110;2024-03-06T02:31:13;21.17;;;15.50;;
34960;SDS011;30789;52.030;7.110;2024-03-06T02:33:39;23.40;;;16.30;;
34960;SDS011;30789;52.030;7.110;2024-03-06T02:36:06;19.42;;;15.68;;
34960;SDS011;30789;52.030;7.110;2024-03-06T02:38:34;21.75;;;16.65;;
34960;SDS011;30789;52.030;7.110;2024-03-06T02:41:01;21.67;;;15.63;;
34960;SDS011;30789;52.030;7.110;2024-03-06T02:43:28;23.20;;;17.05;;
34960;SDS011;30789;52.030;7.110;2024-03-06T02:45:55;21.85;;;16.60;;
34960;SDS011;30789;52.030;7.110;2024-03-06T02:48:21;21.50;;;16.95;;
34960;SDS011;30789;52.030;7.110;2024-03-06T02:50:48;21.52;;;16.02;;
34960;SDS011;30789;52.030;7.110;2024-03-06T02:53:15;23.13;;;16.58;;
34960;SDS011;30789;52.030;7.110;2024-03-06T02:55:43;22.45;;;17.05;;
34960;SDS011;30789;52.030;7.110;2024-03-06T02:58:09;21.15;;;16.67;;
34960;SDS011;30789;52.030;7.110;2024-03-06T03:00:36;20.83;;;16.75;;
34960;SDS011;30789;52.030;7.110;2024-03-06T03:03:03;23.15;;;17.80;;
34960;SDS011;30789;52.030;7.110;2024-03-06T03:05:29;22.20;;;16.42;;
34960;SDS011;30789;52.030;7.110;2024-03-06T03:07:56;21.00;;;16.38;;
34960;SDS011;30789;52.030;7.110;2024-03-06T03:10:23;21.40;;;16.08;;
34960;SDS011;30789;52.030;7.110;2024-03-06T03:12:51;23.30;;;16.42;;
34960;SDS011;30789;52.030;7.110;2024-03-06T03:15:18;21.73;;;16.98;;
34960;SDS011;30789;52.030;7.110;2024-03-06T03:17:45;24.83;;;16.88;;
34960;SDS011;30789;52.030;7.110;2024-03-06T03:20:12;23.83;;;17.38;;
34960;SDS011;30789;52.030;7.110;2024-03-06T03:22:41;23.25;;;16.95;;
34960;SDS011;30789;52.030;7.110;2024-03-06T03:25:08;22.40;;;17.67;;
34960;SDS011;30789;52.030;7.110;2024-03-06T03:27:36;23.88;;;18.35;;
34960;SDS011;30789;52.030;7.110;2024-03-06T03:30:07;22.55;;;16.95;;
34960;SDS011;30789;52.030;7.110;2024-03-06T03:32:35;24.77;;;17.67;;
34960;SDS011;30789;52.030;7.110;2024-03-06T03:35:01;24.50;;;18.50;;
34960;SDS011;30789;52.030;7.110;2024-03-06T03:37:29;25.50;;;18.15;;
34960;SDS011;30789;52.030;7.110;2024-03-06T03:39:55;24.38;;;17.83;;
34960;SDS011;30789;52.030;7.110;2024-03-06T03:42:22;24.73;;;19.65;;
34960;SDS011;30789;52.030;7.110;2024-03-06T03:44:49;27.85;;;19.85;;
34960;SDS011;30789;52.030;7.110;2024-03-06T03:47:17;29.42;;;20.40;;
34960;SDS011;30789;52.030;7.110;2024-03-06T03:49:44;24.85;;;19.48;;
34960;SDS011;30789;52.030;7.110;2024-03-06T03:52:11;29.50;;;19.48;;
34960;SDS011;30789;52.030;7.110;2024-03-06T03:54:39;26.77;;;20.70;;
34960;SDS011;30789;52.030;7.110;2024-03-06T03:57:05;30.00;;;20.90;;
34960;SDS011;30789;52.030;7.110;2024-03-06T03:59:33;30.08;;;20.98;;
34960;SDS011;30789;52.030;7.110;2024-03-06T04:02:00;27.98;;;20.08;;
34960;SDS011;30789;52.030;7.110;2024-03-06T04:04:28;29.77;;;19.95;;
34960;SDS011;30789;52.030;7.110;2024-03-06T04:06:55;31.63;;;21.45;;
34960;SDS011;30789;52.030;7.110;2024-03-06T04:09:24;30.02;;;19.13;;
34960;SDS011;30789;52.030;7.110;2024-03-06T04:11:51;26.08;;;18.95;;
34960;SDS011;30789;52.030;7.110;2024-03-06T04:14:17;25.58;;;18.73;;
34960;SDS011;30789;52.030;7.110;2024-03-06T04:16:46;28.05;;;18.73;;
34960;SDS011;30789;52.030;7.110;2024-03-06T04:19:13;26.52;;;19.35;;
34960;SDS011;30789;52.030;7.110;2024-03-06T04:21:41;27.10;;;19.00;;
34960;SDS011;30789;52.030;7.110;2024-03-06T04:24:08;30.17;;;19.48;;
34960;SDS011;30789;52.030;7.110;2024-03-06T04:26:36;31.60;;;19.85;;
34960;SDS011;30789;52.030;7.110;2024-03-06T04:29:03;30.17;;;20.52;;
34960;SDS011;30789;52.030;7.110;2024-03-06T04:31:29;32.83;;;20.08;;
34960;SDS011;30789;52.030;7.110;2024-03-06T04:33:56;29.10;;;19.83;;
34960;SDS011;30789;52.030;7.110;2024-03-06T04:36:23;31.40;;;20.08;;
34960;SDS011;30789;52.030;7.110;2024-03-06T04:38:51;27.70;;;19.00;;
34960;SDS011;30789;52.030;7.110;2024-03-06T04:41:18;29.02;;;19.70;;
34960;SDS011;30789;52.030;7.110;2024-03-06T04:43:45;26.75;;;18.95;;
34960;SDS011;30789;52.030;7.110;2024-03-06T04:46:12;31.80;;;20.48;;
34960;SDS011;30789;52.030;7.110;2024-03-06T04:48:39;27.85;;;18.80;;
34960;SDS011;30789;52.030;7.110;2024-03-06T04:51:06;26.95;;;19.67;;
34960;SDS011;30789;52.030;7.110;2024-03-06T04:53:35;27.23;;;19.38;;
34960;SDS011;30789;52.030;7.110;2024-03-06T04:56:03;26.75;;;18.90;;
34960;SDS011;30789;52.030;7.110;2024-03-06T04:58:30;27.05;;;18.40;;
34960;SDS011;30789;52.030;7.110;2024-03-06T05:00:56;28.02;;;19.42;;
34960;SDS011;30789;52.030;7.110;2024-03-06T05:03:23;29.92;;;19.95;;
34960;SDS011;30789;52.030;7.110;2024-03-06T05:05:50;26.52;;;19.20;;
34960;SDS011;30789;52.030;7.110;2024-03-06T05:08:16;28.25;;;18.83;;
34960;SDS011;30789;52.030;7.110;2024-03-06T05:10:43;30.92;;;20.08;;
34960;SDS011;30789;52.030;7.110;2024-03-06T05:13:11;31.45;;;20.48;;
34960;SDS011;30789;52.030;7.110;2024-03-06T05:15:38;30.90;;;21.45;;
34960;SDS011;30789;52.030;7.110;2024-03-06T05:18:05;31.60;;;20.80;;
34960;SDS011;30789;52.030;7.110;2024-03-06T05:20:32;29.73;;;20.42;;
34960;SDS011;30789;52.030;7.110;2024-03-06T05:22:59;33.50;;;21.45;;
34960;SDS011;30789;52.030;7.110;2024-03-06T05:25:26;35.40;;;20.33;;
34960;SDS011;30789;52.030;7.110;2024-03-06T05:27:52;29.83;;;21.13;;
34960;SDS011;30789;52.030;7.110;2024-03-06T05:30:20;34.85;;;22.50;;
34960;SDS011;30789;52.030;7.110;2024-03-06T05:32:47;33.53;;;21.60;;
34960;SDS011;30789;52.030;7.110;2024-03-06T05:35:14;34.00;;;22.33;;
34960;SDS011;30789;52.030;7.110;2024-03-06T05:37:41;31.90;;;20.90;;
34960;SDS011;30789;52.030;7.110;2024-03-06T05:40:09;36.63;;;22.85;;
34960;SDS011;30789;52.030;7.110;2024-03-06T05:42:36;36.60;;;23.70;;
34960;SDS011;30789;52.030;7.110;2024-03-06T05:45:03;36.70;;;24.30;;
34960;SDS011;30789;52.030;7.110;2024-03-06T05:47:36;36.90;;;22.90;;
34960;SDS011;30789;52.030;7.110;2024-03-06T05:50:04;38.22;;;24.25;;
34960;SDS011;30789;52.030;7.110;2024-03-06T05:52:31;37.28;;;25.05;;
34960;SDS011;30789;52.030;7.110;2024-03-06T05:54:58;39.90;;;25.48;;
34960;SDS011;30789;52.030;7.110;2024-03-06T05:57:25;39.88;;;26.20;;
34960;SDS011;30789;52.030;7.110;2024-03-06T05:59:52;38.33;;;25.80;;
34960;SDS011;30789;52.030;7.110;2024-03-06T06:02:19;38.70;;;25.55;;
34960;SDS011;30789;52.030;7.110;2024-03-06T06:04:48;40.42;;;25.88;;
34960;SDS011;30789;52.030;7.110;2024-03-06T06:07:15;41.75;;;27.63;;
34960;SDS011;30789;52.030;7.110;2024-03-06T06:09:43;46.30;;;28.80;;
34960;SDS011;30789;52.030;7.110;2024-03-06T06:12:10;42.38;;;27.38;;
34960;SDS011;30789;52.030;7.110;2024-03-06T06:14:36;43.60;;;26.20;;
34960;SDS011;30789;52.030;7.110;2024-03-06T06:17:03;42.97;;;27.00;;
34960;SDS011;30789;52.030;7.110;2024-03-06T06:19:30;42.95;;;26.80;;
34960;SDS011;30789;52.030;7.110;2024-03-06T06:21:58;41.35;;;27.05;;
34960;SDS011;30789;52.030;7.110;2024-03-06T06:24:25;41.13;;;26.95;;
34960;SDS011;30789;52.030;7.110;2024-03-06T06:26:52;42.00;;;28.70;;
34960;SDS011;30789;52.030;7.110;2024-03-06T06:29:19;41.47;;;25.55;;
34960;SDS011;30789;52.030;7.110;2024-03-06T06:31:45;42.33;;;27.80;;
34960;SDS011;30789;52.030;7.110;2024-03-06T06:34:12;42.20;;;27.13;;
34960;SDS011;30789;52.030;7.110;2024-03-06T06:36:39;42.10;;;28.08;;
34960;SDS011;30789;52.030;7.110;2024-03-06T06:39:13;44.83;;;27.55;;
34960;SDS011;30789;52.030;7.110;2024-03-06T06:41:43;40.72;;;27.00;;
34960;SDS011;30789;52.030;7.110;2024-03-06T06:44:09;44.08;;;27.67;;
34960;SDS011;30789;52.030;7.110;2024-03-06T06:46:36;43.72;;;26.75;;
34960;SDS011;30789;52.030;7.110;2024-03-06T06:49:03;45.08;;;28.08;;
34960;SDS011;30789;52.030;7.110;2024-03-06T06:51:30;46.08;;;29.55;;
34960;SDS011;30789;52.030;7.110;2024-03-06T06:53:56;42.03;;;27.02;;
34960;SDS011;30789;52.030;7.110;2024-03-06T06:56:24;49.25;;;29.00;;
34960;SDS011;30789;52.030;7.110;2024-03-06T06:58:51;42.10;;;27.48;;
34960;SDS011;30789;52.030;7.110;2024-03-06T07:01:18;42.80;;;28.30;;
34960;SDS011;30789;52.030;7.110;2024-03-06T07:03:45;47.08;;;28.80;;
34960;SDS011;30789;52.030;7.110;2024-03-06T07:06:12;46.35;;;28.23;;
34960;SDS011;30789;52.030;7.110;2024-03-06T07:08:38;46.60;;;28.33;;
34960;SDS011;30789;52.030;7.110;2024-03-06T07:11:05;51.53;;;30.27;;
34960;SDS011;30789;52.030;7.110;2024-03-06T07:13:33;47.50;;;28.98;;
34960;SDS011;30789;52.030;7.110;2024-03-06T07:16:02;53.45;;;31.75;;
34960;SDS011;30789;52.030;7.110;2024-03-06T07:18:29;45.78;;;30.63;;
34960;SDS011;30789;52.030;7.110;2024-03-06T07:20:55;50.15;;;30.10;;
34960;SDS011;30789;52.030;7.110;2024-03-06T07:23:22;53.63;;;31.15;;
34960;SDS011;30789;52.030;7.110;2024-03-06T07:25:49;53.38;;;33.58;;
34960;SDS011;30789;52.030;7.110;2024-03-06T07:28:15;51.85;;;30.83;;
34960;SDS011;30789;52.030;7.110;2024-03-06T07:30:43;50.13;;;31.20;;
34960;SDS011;30789;52.030;7.110;2024-03-06T07:33:10;51.13;;;31.98;;
34960;SDS011;30789;52.030;7.110;2024-03-06T07:35:39;52.83;;;31.08;;
34960;SDS011;30789;52.030;7.110;2024-03-06T07:38:05;50.40;;;30.50;;
34960;SDS011;30789;52.030;7.110;2024-03-06T07:40:32;56.50;;;31.15;;
34960;SDS011;30789;52.030;7.110;2024-03-06T07:43:01;52.60;;;31.42;;
34960;SDS011;30789;52.030;7.110;2024-03-06T07:45:29;51.60;;;30.58;;
34960;SDS011;30789;52.030;7.110;2024-03-06T07:47:57;52.00;;;32.13;;
34960;SDS011;30789;52.030;7.110;2024-03-06T07:50:24;55.92;;;31.75;;
34960;SDS011;30789;52.030;7.110;2024-03-06T07:52:50;60.33;;;33.13;;
34960;SDS011;30789;52.030;7.110;2024-03-06T07:55:17;56.65;;;32.58;;
34960;SDS011;30789;52.030;7.110;2024-03-06T07:57:49;57.45;;;33.08;;
34960;SDS011;30789;52.030;7.110;2024-03-06T08:00:51;54.00;;;32.03;;
34960;SDS011;30789;52.030;7.110;2024-03-06T08:03:22;58.25;;;32.60;;
34960;SDS011;30789;52.030;7.110;2024-03-06T08:05:50;60.67;;;35.03;;
34960;SDS011;30789;52.030;7.110;2024-03-06T08:08:18;58.25;;;33.97;;
34960;SDS011;30789;52.030;7.110;2024-03-06T08:10:46;55.67;;;31.63;;
34960;SDS011;30789;52.030;7.110;2024-03-06T08:13:12;52.00;;;30.27;;
34960;SDS011;30789;52.030;7.110;2024-03-06T08:15:39;56.65;;;31.13;;
34960;SDS011;30789;52.030;7.110;2024-03-06T08:18:09;49.47;;;30.45;;
34960;SDS011;30789;52.030;7.110;2024-03-06T08:20:38;54.03;;;31.52;;
34960;SDS011;30789;52.030;7.110;2024-03-06T08:23:04;52.35;;;28.92;;
34960;SDS011;30789;52.030;7.110;2024-03-06T08:25:35;50.88;;;30.30;;
34960;SDS011;30789;52.030;7.110;2024-03-06T08:28:02;53.28;;;31.13;;
34960;SDS011;30789;52.030;7.110;2024-03-06T08:30:30;47.47;;;29.63;;
34960;SDS011;30789;52.030;7.110;2024-03-06T08:32:57;55.08;;;31.05;;
34960;SDS011;30789;52.030;7.110;2024-03-06T08:35:25;48.75;;;30.17;;
34960;SDS011;30789;52.030;7.110;2024-03-06T08:38:05;52.30;;;30.00;;
34960;SDS011;30789;52.030;7.110;2024-03-06T08:40:32;50.45;;;29.58;;
34960;SDS011;30789;52.030;7.110;2024-03-06T08:42:59;49.67;;;30.77;;
34960;SDS011;30789;52.030;7.110;2024-03-06T08:45:25;50.42;;;29.17;;
34960;SDS011;30789;52.030;7.110;2024-03-06T08:47:52;47.08;;;29.20;;
34960;SDS011;30789;52.030;7.110;2024-03-06T08:50:19;46.58;;;28.77;;
34960;SDS011;30789;52.030;7.110;2024-03-06T08:52:47;47.53;;;29.80;;
34960;SDS011;30789;52.030;7.110;2024-03-06T08:55:16;49.53;;;29.52;;
34960;SDS011;30789;52.030;7.110;2024-03-06T08:57:42;46.55;;;29.20;;
34960;SDS011;30789;52.030;7.110;2024-03-06T09:00:10;46.90;;;28.85;;
34960;SDS011;30789;52.030;7.110;2024-03-06T09:02:37;46.17;;;28.83;;
34960;SDS011;30789;52.030;7.110;2024-03-06T09:05:07;46.92;;;28.55;;
34960;SDS011;30789;52.030;7.110;2024-03-06T09:07:35;47.38;;;29.02;;
34960;SDS011;30789;52.030;7.110;2024-03-06T09:10:06;47.33;;;28.95;;
34960;SDS011;30789;52.030;7.110;2024-03-06T09:12:35;44.05;;;27.30;;
34960;SDS011;30789;52.030;7.110;2024-03-06T09:15:02;45.60;;;27.98;;
34960;SDS011;30789;52.030;7.110;2024-03-06T09:17:29;46.20;;;27.58;;
34960;SDS011;30789;52.030;7.110;2024-03-06T09:19:56;45.92;;;26.58;;
34960;SDS011;30789;52.030;7.110;2024-03-06T09:22:23;43.50;;;24.85;;
34960;SDS011;30789;52.030;7.110;2024-03-06T09:24:50;39.38;;;23.75;;
34960;SDS011;30789;52.030;7.110;2024-03-06T09:27:17;37.58;;;23.30;;
34960;SDS011;30789;52.030;7.110;2024-03-06T09:29:45;41.85;;;23.63;;
34960;SDS011;30789;52.030;7.110;2024-03-06T09:32:12;36.97;;;21.77;;
34960;SDS011;30789;52.030;7.110;2024-03-06T09:34:40;34.80;;;20.23;;
34960;SDS011;30789;52.030;7.110;2024-03-06T09:37:09;35.03;;;21.23;;
34960;SDS011;30789;52.030;7.110;2024-03-06T09:42:34;39.20;;;21.75;;
34960;SDS011;30789;52.030;7.110;2024-03-06T10:06:36;40.58;;;25.73;;
34960;SDS011;30789;52.030;7.110;2024-03-06T10:19:49;42.38;;;26.27;;
34960;SDS011;30789;52.030;7.110;2024-03-06T12:13:09;29.20;;;19.73;;
34960;SDS011;30789;52.030;7.110;2024-03-06T12:18:06;29.10;;;20.02;;
34960;SDS011;30789;52.030;7.110;2024-03-06T12:20:33;34.05;;;21.50;;
34960;SDS011;30789;52.030;7.110;2024-03-06T12:23:01;39.60;;;22.55;;
34960;SDS011;30789;52.030;7.110;2024-03-06T12:25:30;35.88;;;21.23;;
34960;SDS011;30789;52.030;7.110;2024-03-06T12:28:06;34.58;;;22.13;;
34960;SDS011;30789;52.030;7.110;2024-03-06T12:30:46;34.72;;;20.77;;
34960;SDS011;30789;52.030;7.110;2024-03-06T12:33:16;33.15;;;21.73;;
34960;SDS011;30789;52.030;7.110;2024-03-06T12:39:07;30.73;;;20.60;;
34960;SDS011;30789;52.030;7.110;2024-03-06T12:42:23;30.15;;;20.02;;
34960;SDS011;30789;52.030;7.110;2024-03-06T12:45:14;33.90;;;20.05;;
34960;SDS011;30789;52.030;7.110;2024-03-06T12:50:24;29.98;;;19.38;;
34960;SDS011;30789;52.030;7.110;2024-03-06T12:53:08;31.88;;;20.75;;
34960;SDS011;30789;52.030;7.110;2024-03-06T12:55:37;31.60;;;20.05;;
34960;SDS011;30789;52.030;7.110;2024-03-06T13:42:16;34.90;;;20.63;;
34960;SDS011;30789;52.030;7.110;2024-03-06T13:44:45;35.35;;;21.50;;
34960;SDS011;30789;52.030;7.110;2024-03-06T13:47:14;34.78;;;20.30;;
34960;SDS011;30789;52.030;7.110;2024-03-06T13:49:43;35.22;;;21.83;;
34960;SDS011;30789;52.030;7.110;2024-03-06T13:52:10;38.60;;;21.90;;
34960;SDS011;30789;52.030;7.110;2024-03-06T13:54:46;38.03;;;21.63;;
34960;SDS011;30789;52.030;7.110;2024-03-06T14:14:44;35.75;;;20.73;;
34960;SDS011;30789;52.030;7.110;2024-03-06T14:17:11;33.90;;;19.70;;
34960;SDS011;30789;52.030;7.110;2024-03-06T14:19:46;33.38;;;20.70;;
34960;SDS011;30789;52.030;7.110;2024-03-06T14:23:35;29.23;;;19.42;;
34960;SDS011;30789;52.030;7.110;2024-03-06T14:26:34;34.50;;;19.67;;
34960;SDS011;30789;52.030;7.110;2024-03-06T14:29:02;31.00;;;19.35;;
34960;SDS011;30789;52.030;7.110;2024-03-06T14:45:14;24.58;;;17.17;;
34960;SDS011;30789;52.030;7.110;2024-03-06T14:47:42;26.15;;;16.50;;
34960;SDS011;30789;52.030;7.110;2024-03-06T14:50:13;34.10;;;17.80;;
34960;SDS011;30789;52.030;7.110;2024-03-06T14:52:40;26.52;;;17.27;;
34960;SDS011;30789;52.030;7.110;2024-03-06T14:55:09;28.15;;;17.58;;
34960;SDS011;30789;52.030;7.110;2024-03-06T14:58:01;23.80;;;15.65;;
34960;SDS011;30789;52.030;7.110;2024-03-06T15:00:32;26.65;;;17.02;;
34960;SDS011;30789;52.030;7.110;2024-03-06T15:03:04;27.02;;;17.65;;
34960;SDS011;30789;52.030;7.110;2024-03-06T15:12:36;31.60;;;17.02;;
34960;SDS011;30789;52.030;7.110;2024-03-06T15:39:20;29.90;;;17.73;;
34960;SDS011;30789;52.030;7.110;2024-03-06T15:41:53;25.65;;;16.58;;
34960;SDS011;30789;52.030;7.110;2024-03-06T15:44:25;25.92;;;16.92;;
34960;SDS011;30789;52.030;7.110;2024-03-06T15:46:57;33.83;;;18.13;;
34960;SDS011;30789;52.030;7.110;2024-03-06T15:49:24;26.65;;;17.77;;
34960;SDS011;30789;52.030;7.110;2024-03-06T15:51:57;31.25;;;18.63;;
34960;SDS011;30789;52.030;7.110;2024-03-06T15:54:39;29.38;;;18.67;;
34960;SDS011;30789;52.030;7.110;2024-03-06T15:57:29;30.23;;;20.20;;
34960;SDS011;30789;52.030;7.110;2024-03-06T16:00:00;29.50;;;18.70;;
34960;SDS011;30789;52.030;7.110;2024-03-06T16:02:29;29.27;;;19.35;;
34960;SDS011;30789;52.030;7.110;2024-03-06T16:05:04;30.50;;;19.30;;
34960;SDS011;30789;52.030;7.110;2024-03-06T16:07:42;29.02;;;19.15;;
34960;SDS011;30789;52.030;7.110;2024-03-06T16:10:42;29.33;;;18.77;;
34960;SDS011;30789;52.030;7.110;2024-03-06T16:13:13;27.20;;;18.80;;
34960;SDS011;30789;52.030;7.110;2024-03-06T16:15:46;42.33;;;19.55;;
34960;SDS011;30789;52.030;7.110;2024-03-06T16:18:15;33.25;;;18.67;;
34960;SDS011;30789;52.030;7.110;2024-03-06T16:20:44;29.00;;;17.75;;
34960;SDS011;30789;52.030;7.110;2024-03-06T16:23:11;29.30;;;19.42;;
34960;SDS011;30789;52.030;7.110;2024-03-06T16:25:38;35.40;;;19.55;;
34960;SDS011;30789;52.030;7.110;2024-03-06T16:28:09;31.73;;;20.02;;
34960;SDS011;30789;52.030;7.110;2024-03-06T16:30:38;36.38;;;21.75;;
34960;SDS011;30789;52.030;7.110;2024-03-06T16:33:06;36.75;;;21.23;;
34960;SDS011;30789;52.030;7.110;2024-03-06T16:35:34;31.80;;;20.52;;
34960;SDS011;30789;52.030;7.110;2024-03-06T16:38:03;35.22;;;19.70;;
34960;SDS011;30789;52.030;7.110;2024-03-06T16:40:33;31.85;;;19.65;;
34960;SDS011;30789;52.030;7.110;2024-03-06T16:43:03;32.70;;;19.75;;
34960;SDS011;30789;52.030;7.110;2024-03-06T16:45:32;32.60;;;20.70;;
34960;SDS011;30789;52.030;7.110;2024-03-06T16:47:58;36.75;;;20.10;;
34960;SDS011;30789;52.030;7.110;2024-03-06T16:50:25;33.15;;;18.75;;
34960;SDS011;30789;52.030;7.110;2024-03-06T16:52:52;36.53;;;21.38;;
34960;SDS011;30789;52.030;7.110;2024-03-06T16:55:19;35.65;;;21.23;;
34960;SDS011;30789;52.030;7.110;2024-03-06T16:57:46;34.90;;;21.27;;
34960;SDS011;30789;52.030;7.110;2024-03-06T17:00:13;33.92;;;20.33;;
34960;SDS011;30789;52.030;7.110;2024-03-06T17:02:42;35.67;;;20.67;;
34960;SDS011;30789;52.030;7.110;2024-03-06T17:05:09;35.17;;;20.75;;
34960;SDS011;30789;52.030;7.110;2024-03-06T17:07:35;34.90;;;21.17;;
34960;SDS011;30789;52.030;7.110;2024-03-06T17:10:02;35.35;;;20.80;;
34960;SDS011;30789;52.030;7.110;2024-03-06T17:12:30;33.97;;;20.80;;
34960;SDS011;30789;52.030;7.110;2024-03-06T17:14:56;32.47;;;20.55;;
34960;SDS011;30789;52.030;7.110;2024-03-06T17:17:23;35.75;;;21.05;;
34960;SDS011;30789;52.030;7.110;2024-03-06T17:19:51;34.38;;;20.55;;
34960;SDS011;30789;52.030;7.110;2024-03-06T17:22:19;34.70;;;19.70;;
34960;SDS011;30789;52.030;7.110;2024-03-06T17:24:46;32.10;;;19.75;;
34960;SDS011;30789;52.030;7.110;2024-03-06T17:27:13;29.77;;;19.60;;
34960;SDS011;30789;52.030;7.110;2024-03-06T17:29:39;33.45;;;20.25;;
34960;SDS011;30789;52.030;7.110;2024-03-06T17:32:06;33.75;;;20.25;;
34960;SDS011;30789;52.030;7.110;2024-03-06T17:34:34;33.85;;;21.33;;
34960;SDS011;30789;52.030;7.110;2024-03-06T17:37:02;38.55;;;23.40;;
34960;SDS011;30789;52.030;7.110;2024-03-06T17:39:31;36.05;;;22.25;;
34960;SDS011;30789;52.030;7.110;2024-03-06T17:41:58;34.85;;;21.70;;
34960;SDS011;30789;52.030;7.110;2024-03-06T17:44:25;39.28;;;22.73;;
34960;SDS011;30789;52.030;7.110;2024-03-06T17:46:52;40.17;;;23.88;;
34960;SDS011;30789;52.030;7.110;2024-03-06T17:49:21;38.15;;;23.65;;
34960;SDS011;30789;52.030;7.110;2024-03-06T17:51:48;40.92;;;25.13;;
34960;SDS011;30789;52.030;7.110;2024-03-06T17:54:17;42.53;;;24.60;;
34960;SDS011;30789;52.030;7.110;2024-03-06T17:56:45;41.42;;;25.25;;
34960;SDS011;30789;52.030;7.110;2024-03-06T17:59:12;46.33;;;29.33;;
34960;SDS011;30789;52.030;7.110;2024-03-06T18:01:39;45.35;;;28.17;;
34960;SDS011;30789;52.030;7.110;2024-03-06T18:04:05;51.28;;;29.45;;
34960;SDS011;30789;52.030;7.110;2024-03-06T18:06:33;45.90;;;26.83;;
34960;SDS011;30789;52.030;7.110;2024-03-06T18:08:59;46.38;;;26.23;;
34960;SDS011;30789;52.030;7.110;2024-03-06T18:11:30;41.58;;;27.33;;
34960;SDS011;30789;52.030;7.110;2024-03-06T18:13:57;43.60;;;26.38;;
34960;SDS011;30789;52.030;7.110;2024-03-06T18:16:23;43.00;;;27.35;;
34960;SDS011;30789;52.030;7.110;2024-03-06T18:18:50;41.08;;;26.23;;
34960;SDS011;30789;52.030;7.110;2024-03-06T18:21:17;41.42;;;26.10;;
34960;SDS011;30789;52.030;7.110;2024-03-06T18:23:44;42.00;;;25.63;;
34960;SDS011;30789;52.030;7.110;2024-03-06T18:26:10;41.67;;;25.60;;
34960;SDS011;30789;52.030;7.110;2024-03-06T18:28:38;39.20;;;24.83;;
34960;SDS011;30789;52.030;7.110;2024-03-06T18:31:05;41.10;;;24.05;;
34960;SDS011;30789;52.030;7.110;2024-03-06T18:33:33;38.95;;;25.70;;
34960;SDS011;30789;52.030;7.110;2024-03-06T18:36:00;38.65;;;24.88;;
34960;SDS011;30789;52.030;7.110;2024-03-06T18:38:28;42.97;;;24.83;;
34960;SDS011;30789;52.030;7.110;2024-03-06T18:40:54;42.63;;;26.42;;
34960;SDS011;30789;52.030;7.110;2024-03-06T18:43:21;50.05;;;28.80;;
34960;SDS011;30789;52.030;7.110;2024-03-06T18:45:49;61.00;;;38.00;;
34960;SDS011;30789;52.030;7.110;2024-03-06T18:48:16;51.15;;;32.60;;
34960;SDS011;30789;52.030;7.110;2024-03-06T18:50:43;55.42;;;35.88;;